sensor_id;sensor_type;location;lat;lon;timestamp;P1;durP1;ratioP1;P2;durP2;ratioP2
32214;SDS011;18708;53.124;23.190;2023-02-13T00:01:43;68.70;;;29.02;;
32214;SDS011;18708;53.124;23.190;2023-02-13T00:04:08;76.82;;;31.23;;
32214;SDS011;18708;53.124;23.190;2023-02-13T00:06:34;73.15;;;30.85;;
32214;SDS011;18708;53.124;23.190;2023-02-13T00:08:59;67.05;;;29.05;;
32214;SDS011;18708;53.124;23.190;2023-02-13T00:11:26;69.05;;;29.83;;
32214;SDS011;18708;53.124;23.190;2023-02-13T00:13:52;66.63;;;28.65;;
32214;SDS011;18708;53.124;23.190;2023-02-13T00:16:17;69.22;;;30.45;;
32214;SDS011;18708;53.124;23.190;2023-02-13T00:18:43;68.40;;;31.85;;
32214;SDS011;18708;53.124;23.190;2023-02-13T00:21:10;60.95;;;27.85;;
32214;SDS011;18708;53.124;23.190;2023-02-13T00:23:37;55.20;;;26.75;;
32214;SDS011;18708;53.124;23.190;2023-02-13T00:26:05;64.60;;;28.00;;
32214;SDS011;18708;53.124;23.190;2023-02-13T00:28:32;61.30;;;28.70;;
32214;SDS011;18708;53.124;23.190;2023-02-13T00:31:01;60.25;;;27.02;;
32214;SDS011;18708;53.124;23.190;2023-02-13T00:33:32;69.75;;;30.45;;
32214;SDS011;18708;53.124;23.190;2023-02-13T00:36:07;66.78;;;29.42;;
32214;SDS011;18708;53.124;23.190;2023-02-13T00:38:36;62.65;;;27.85;;
32214;SDS011;18708;53.124;23.190;2023-02-13T00:41:03;55.40;;;26.35;;
32214;SDS011;18708;53.124;23.190;2023-02-13T00:43:31;61.75;;;27.92;;
32214;SDS011;18708;53.124;23.190;2023-02-13T00:45:57;59.33;;;26.83;;
32214;SDS011;18708;53.124;23.190;2023-02-13T00:48:23;51.28;;;26.85;;
32214;SDS011;18708;53.124;23.190;2023-02-13T00:50:50;61.53;;;28.83;;
32214;SDS011;18708;53.124;23.190;2023-02-13T00:53:19;57.95;;;27.20;;
32214;SDS011;18708;53.124;23.190;2023-02-13T00:55:46;51.17;;;25.67;;
32214;SDS011;18708;53.124;23.190;2023-02-13T00:58:12;57.75;;;26.85;;
32214;SDS011;18708;53.124;23.190;2023-02-13T01:00:38;64.55;;;28.25;;
32214;SDS011;18708;53.124;23.190;2023-02-13T01:03:04;56.10;;;26.33;;
32214;SDS011;18708;53.124;23.190;2023-02-13T01:05:30;58.63;;;26.88;;
32214;SDS011;18708;53.124;23.190;2023-02-13T01:07:55;61.13;;;28.23;;
32214;SDS011;18708;53.124;23.190;2023-02-13T01:10:21;64.07;;;28.00;;
32214;SDS011;18708;53.124;23.190;2023-02-13T01:12:47;62.45;;;28.45;;
32214;SDS011;18708;53.124;23.190;2023-02-13T01:15:13;61.13;;;28.25;;
32214;SDS011;18708;53.124;23.190;2023-02-13T01:17:38;64.35;;;28.92;;
32214;SDS011;18708;53.124;23.190;2023-02-13T01:20:05;62.45;;;29.25;;
32214;SDS011;18708;53.124;23.190;2023-02-13T01:22:32;64.68;;;29.20;;
32214;SDS011;18708;53.124;23.190;2023-02-13T01:24:57;71.40;;;28.58;;
32214;SDS011;18708;53.124;23.190;2023-02-13T01:27:23;63.45;;;27.73;;
32214;SDS011;18708;53.124;23.190;2023-02-13T01:29:49;60.80;;;28.52;;
32214;SDS011;18708;53.124;23.190;2023-02-13T01:32:14;59.15;;;28.05;;
32214;SDS011;18708;53.124;23.190;2023-02-13T01:34:40;67.05;;;28.60;;
32214;SDS011;18708;53.124;23.190;2023-02-13T01:37:06;79.72;;;32.58;;
32214;SDS011;18708;53.124;23.190;2023-02-13T01:39:31;68.13;;;27.92;;
32214;SDS011;18708;53.124;23.190;2023-02-13T01:41:57;64.53;;;29.38;;
32214;SDS011;18708;53.124;23.190;2023-02-13T01:47:10;72.63;;;28.83;;
32214;SDS011;18708;53.124;23.190;2023-02-13T01:49:38;66.05;;;29.52;;
32214;SDS011;18708;53.124;23.190;2023-02-13T01:52:05;69.32;;;28.60;;
32214;SDS011;18708;53.124;23.190;2023-02-13T01:54:33;63.78;;;27.95;;
32214;SDS011;18708;53.124;23.190;2023-02-13T01:57:04;64.68;;;29.55;;
32214;SDS011;18708;53.124;23.190;2023-02-13T01:59:36;65.70;;;28.25;;
32214;SDS011;18708;53.124;23.190;2023-02-13T02:02:17;59.95;;;26.90;;
32214;SDS011;18708;53.124;23.190;2023-02-13T02:04:44;63.75;;;29.00;;
32214;SDS011;18708;53.124;23.190;2023-02-13T02:07:20;64.10;;;28.42;;
32214;SDS011;18708;53.124;23.190;2023-02-13T02:09:50;73.20;;;30.48;;
32214;SDS011;18708;53.124;23.190;2023-02-13T02:12:25;60.72;;;27.25;;
32214;SDS011;18708;53.124;23.190;2023-02-13T02:14:56;64.90;;;28.42;;
32214;SDS011;18708;53.124;23.190;2023-02-13T02:17:24;64.45;;;27.52;;
32214;SDS011;18708;53.124;23.190;2023-02-13T02:30:37;62.08;;;27.90;;
32214;SDS011;18708;53.124;23.190;2023-02-13T02:35:52;54.38;;;24.83;;
32214;SDS011;18708;53.124;23.190;2023-02-13T02:44:23;56.85;;;24.65;;
32214;SDS011;18708;53.124;23.190;2023-02-13T02:49:58;51.60;;;24.02;;
32214;SDS011;18708;53.124;23.190;2023-02-13T02:55:12;54.90;;;25.48;;
32214;SDS011;18708;53.124;23.190;2023-02-13T02:58:20;57.85;;;25.63;;
32214;SDS011;18708;53.124;23.190;2023-02-13T03:01:13;52.90;;;24.30;;
32214;SDS011;18708;53.124;23.190;2023-02-13T03:03:59;58.05;;;26.60;;
32214;SDS011;18708;53.124;23.190;2023-02-13T03:06:54;59.50;;;26.23;;
32214;SDS011;18708;53.124;23.190;2023-02-13T03:09:26;51.75;;;22.70;;
32214;SDS011;18708;53.124;23.190;2023-02-13T03:12:18;53.83;;;23.85;;
32214;SDS011;18708;53.124;23.190;2023-02-13T03:15:05;54.22;;;24.70;;
32214;SDS011;18708;53.124;23.190;2023-02-13T03:17:31;51.78;;;24.45;;
32214;SDS011;18708;53.124;23.190;2023-02-13T03:20:39;58.50;;;26.30;;
32214;SDS011;18708;53.124;23.190;2023-02-13T03:26:16;54.53;;;25.67;;
32214;SDS011;18708;53.124;23.190;2023-02-13T03:31:59;54.72;;;25.25;;
32214;SDS011;18708;53.124;23.190;2023-02-13T03:34:36;48.72;;;24.00;;
32214;SDS011;18708;53.124;23.190;2023-02-13T03:37:27;48.85;;;24.50;;
32214;SDS011;18708;53.124;23.190;2023-02-13T03:40:21;46.88;;;23.13;;
32214;SDS011;18708;53.124;23.190;2023-02-13T03:43:09;47.17;;;22.63;;
32214;SDS011;18708;53.124;23.190;2023-02-13T03:45:40;56.35;;;25.75;;
32214;SDS011;18708;53.124;23.190;2023-02-13T03:48:31;54.83;;;25.83;;
32214;SDS011;18708;53.124;23.190;2023-02-13T03:51:24;47.58;;;23.52;;
32214;SDS011;18708;53.124;23.190;2023-02-13T03:53:56;46.28;;;22.13;;
32214;SDS011;18708;53.124;23.190;2023-02-13T03:56:25;47.95;;;24.45;;
32214;SDS011;18708;53.124;23.190;2023-02-13T03:59:17;44.17;;;22.67;;
32214;SDS011;18708;53.124;23.190;2023-02-13T04:04:50;45.03;;;22.40;;
32214;SDS011;18708;53.124;23.190;2023-02-13T04:07:22;46.45;;;22.40;;
32214;SDS011;18708;53.124;23.190;2023-02-13T04:09:59;41.78;;;23.20;;
32214;SDS011;18708;53.124;23.190;2023-02-13T04:15:15;52.42;;;24.00;;
32214;SDS011;18708;53.124;23.190;2023-02-13T04:18:17;41.63;;;22.42;;
32214;SDS011;18708;53.124;23.190;2023-02-13T04:20:51;39.60;;;21.65;;
32214;SDS011;18708;53.124;23.190;2023-02-13T04:23:16;39.70;;;21.60;;
32214;SDS011;18708;53.124;23.190;2023-02-13T04:25:44;44.22;;;22.83;;
32214;SDS011;18708;53.124;23.190;2023-02-13T04:28:11;40.63;;;21.27;;
32214;SDS011;18708;53.124;23.190;2023-02-13T04:30:39;41.58;;;22.15;;
32214;SDS011;18708;53.124;23.190;2023-02-13T04:33:05;40.63;;;21.90;;
32214;SDS011;18708;53.124;23.190;2023-02-13T04:35:31;40.83;;;21.92;;
32214;SDS011;18708;53.124;23.190;2023-02-13T04:37:56;36.08;;;20.63;;
32214;SDS011;18708;53.124;23.190;2023-02-13T04:40:22;39.80;;;20.27;;
32214;SDS011;18708;53.124;23.190;2023-02-13T04:42:50;37.33;;;19.85;;
32214;SDS011;18708;53.124;23.190;2023-02-13T04:45:16;39.88;;;20.58;;
32214;SDS011;18708;53.124;23.190;2023-02-13T04:47:42;38.17;;;20.42;;
32214;SDS011;18708;53.124;23.190;2023-02-13T04:50:13;34.85;;;19.63;;
32214;SDS011;18708;53.124;23.190;2023-02-13T04:52:38;35.55;;;20.23;;
32214;SDS011;18708;53.124;23.190;2023-02-13T04:55:04;40.70;;;23.90;;
32214;SDS011;18708;53.124;23.190;2023-02-13T04:57:30;29.60;;;17.58;;
32214;SDS011;18708;53.124;23.190;2023-02-13T04:59:55;44.50;;;25.30;;
32214;SDS011;18708;53.124;23.190;2023-02-13T05:02:21;44.85;;;22.50;;
32214;SDS011;18708;53.124;23.190;2023-02-13T05:04:47;51.42;;;28.30;;
32214;SDS011;18708;53.124;23.190;2023-02-13T05:07:12;41.13;;;21.38;;
32214;SDS011;18708;53.124;23.190;2023-02-13T05:09:38;54.45;;;28.42;;
32214;SDS011;18708;53.124;23.190;2023-02-13T05:12:03;50.22;;;25.58;;
32214;SDS011;18708;53.124;23.190;2023-02-13T05:14:31;46.90;;;25.83;;
32214;SDS011;18708;53.124;23.190;2023-02-13T05:16:57;31.65;;;18.20;;
32214;SDS011;18708;53.124;23.190;2023-02-13T05:19:23;31.38;;;17.05;;
32214;SDS011;18708;53.124;23.190;2023-02-13T05:21:48;31.58;;;17.08;;
32214;SDS011;18708;53.124;23.190;2023-02-13T05:24:32;30.20;;;16.80;;
32214;SDS011;18708;53.124;23.190;2023-02-13T05:26:58;26.73;;;17.08;;
32214;SDS011;18708;53.124;23.190;2023-02-13T05:29:23;27.42;;;16.27;;
32214;SDS011;18708;53.124;23.190;2023-02-13T05:31:50;31.42;;;16.40;;
32214;SDS011;18708;53.124;23.190;2023-02-13T05:34:18;30.38;;;16.30;;
32214;SDS011;18708;53.124;23.190;2023-02-13T05:36:45;33.58;;;17.80;;
32214;SDS011;18708;53.124;23.190;2023-02-13T05:39:10;30.40;;;17.65;;
32214;SDS011;18708;53.124;23.190;2023-02-13T05:41:36;35.17;;;19.38;;
32214;SDS011;18708;53.124;23.190;2023-02-13T05:44:02;24.63;;;15.88;;
32214;SDS011;18708;53.124;23.190;2023-02-13T05:46:28;30.33;;;18.35;;
32214;SDS011;18708;53.124;23.190;2023-02-13T05:48:53;29.52;;;18.00;;
32214;SDS011;18708;53.124;23.190;2023-02-13T05:51:19;30.67;;;16.88;;
32214;SDS011;18708;53.124;23.190;2023-02-13T05:53:45;30.05;;;18.55;;
32214;SDS011;18708;53.124;23.190;2023-02-13T05:56:10;114.38;;;48.38;;
32214;SDS011;18708;53.124;23.190;2023-02-13T05:58:36;35.10;;;19.40;;
32214;SDS011;18708;53.124;23.190;2023-02-13T06:01:02;39.55;;;21.55;;
32214;SDS011;18708;53.124;23.190;2023-02-13T06:03:28;29.48;;;17.63;;
32214;SDS011;18708;53.124;23.190;2023-02-13T06:05:56;31.85;;;17.50;;
32214;SDS011;18708;53.124;23.190;2023-02-13T06:08:22;25.77;;;16.33;;
32214;SDS011;18708;53.124;23.190;2023-02-13T06:10:49;27.00;;;17.13;;
32214;SDS011;18708;53.124;23.190;2023-02-13T06:13:15;32.63;;;18.80;;
32214;SDS011;18708;53.124;23.190;2023-02-13T06:15:41;32.28;;;18.95;;
32214;SDS011;18708;53.124;23.190;2023-02-13T06:18:07;34.75;;;18.08;;
32214;SDS011;18708;53.124;23.190;2023-02-13T06:20:34;31.55;;;18.50;;
32214;SDS011;18708;53.124;23.190;2023-02-13T06:23:00;34.63;;;19.20;;
32214;SDS011;18708;53.124;23.190;2023-02-13T06:25:26;31.48;;;16.95;;
32214;SDS011;18708;53.124;23.190;2023-02-13T06:27:54;31.77;;;18.23;;
32214;SDS011;18708;53.124;23.190;2023-02-13T06:30:20;35.08;;;18.42;;
32214;SDS011;18708;53.124;23.190;2023-02-13T06:32:46;30.10;;;17.55;;
32214;SDS011;18708;53.124;23.190;2023-02-13T06:35:14;32.85;;;21.50;;
32214;SDS011;18708;53.124;23.190;2023-02-13T06:37:40;30.52;;;15.25;;
32214;SDS011;18708;53.124;23.190;2023-02-13T06:40:09;47.70;;;25.77;;
32214;SDS011;18708;53.124;23.190;2023-02-13T06:42:38;32.20;;;19.95;;
32214;SDS011;18708;53.124;23.190;2023-02-13T06:45:04;23.50;;;16.45;;
32214;SDS011;18708;53.124;23.190;2023-02-13T06:47:30;28.75;;;16.92;;
32214;SDS011;18708;53.124;23.190;2023-02-13T06:49:55;23.67;;;14.68;;
32214;SDS011;18708;53.124;23.190;2023-02-13T06:52:22;26.27;;;15.68;;
32214;SDS011;18708;53.124;23.190;2023-02-13T06:54:47;33.10;;;16.50;;
32214;SDS011;18708;53.124;23.190;2023-02-13T06:57:13;27.50;;;16.30;;
32214;SDS011;18708;53.124;23.190;2023-02-13T06:59:40;29.02;;;15.25;;
32214;SDS011;18708;53.124;23.190;2023-02-13T07:02:07;20.95;;;14.15;;
32214;SDS011;18708;53.124;23.190;2023-02-13T07:04:36;22.08;;;14.30;;
32214;SDS011;18708;53.124;23.190;2023-02-13T07:07:02;26.45;;;16.00;;
32214;SDS011;18708;53.124;23.190;2023-02-13T07:09:28;22.30;;;11.18;;
32214;SDS011;18708;53.124;23.190;2023-02-13T07:11:55;46.90;;;27.92;;
32214;SDS011;18708;53.124;23.190;2023-02-13T07:14:21;23.90;;;13.30;;
32214;SDS011;18708;53.124;23.190;2023-02-13T07:16:47;53.00;;;30.15;;
32214;SDS011;18708;53.124;23.190;2023-02-13T07:19:12;41.40;;;23.73;;
32214;SDS011;18708;53.124;23.190;2023-02-13T07:21:38;98.30;;;54.92;;
32214;SDS011;18708;53.124;23.190;2023-02-13T07:24:06;21.08;;;13.88;;
32214;SDS011;18708;53.124;23.190;2023-02-13T07:26:31;22.45;;;15.48;;
32214;SDS011;18708;53.124;23.190;2023-02-13T07:28:57;23.10;;;15.55;;
32214;SDS011;18708;53.124;23.190;2023-02-13T07:31:23;28.55;;;16.98;;
32214;SDS011;18708;53.124;23.190;2023-02-13T07:33:48;19.77;;;13.05;;
32214;SDS011;18708;53.124;23.190;2023-02-13T07:36:14;21.33;;;13.50;;
32214;SDS011;18708;53.124;23.190;2023-02-13T07:38:40;19.85;;;12.02;;
32214;SDS011;18708;53.124;23.190;2023-02-13T07:41:05;25.35;;;15.55;;
32214;SDS011;18708;53.124;23.190;2023-02-13T07:43:33;22.23;;;13.38;;
32214;SDS011;18708;53.124;23.190;2023-02-13T07:45:59;41.08;;;31.35;;
32214;SDS011;18708;53.124;23.190;2023-02-13T07:48:26;29.20;;;19.88;;
32214;SDS011;18708;53.124;23.190;2023-02-13T07:50:52;26.23;;;19.30;;
32214;SDS011;18708;53.124;23.190;2023-02-13T07:53:18;25.15;;;18.35;;
32214;SDS011;18708;53.124;23.190;2023-02-13T07:55:44;34.13;;;26.33;;
32214;SDS011;18708;53.124;23.190;2023-02-13T07:58:10;26.15;;;16.95;;
32214;SDS011;18708;53.124;23.190;2023-02-13T08:00:38;27.15;;;15.45;;
32214;SDS011;18708;53.124;23.190;2023-02-13T08:03:03;32.63;;;24.05;;
32214;SDS011;18708;53.124;23.190;2023-02-13T08:05:29;29.35;;;18.75;;
32214;SDS011;18708;53.124;23.190;2023-02-13T08:07:58;32.50;;;21.63;;
32214;SDS011;18708;53.124;23.190;2023-02-13T08:10:24;20.55;;;12.68;;
32214;SDS011;18708;53.124;23.190;2023-02-13T08:13:08;31.35;;;21.70;;
32214;SDS011;18708;53.124;23.190;2023-02-13T08:15:35;26.50;;;17.73;;
32214;SDS011;18708;53.124;23.190;2023-02-13T08:18:04;28.85;;;21.27;;
32214;SDS011;18708;53.124;23.190;2023-02-13T08:20:32;22.80;;;14.02;;
32214;SDS011;18708;53.124;23.190;2023-02-13T08:23:02;24.15;;;19.73;;
32214;SDS011;18708;53.124;23.190;2023-02-13T08:25:29;21.70;;;14.05;;
32214;SDS011;18708;53.124;23.190;2023-02-13T08:27:55;21.90;;;13.98;;
32214;SDS011;18708;53.124;23.190;2023-02-13T08:30:20;17.40;;;12.38;;
32214;SDS011;18708;53.124;23.190;2023-02-13T08:32:46;19.20;;;12.55;;
32214;SDS011;18708;53.124;23.190;2023-02-13T08:35:12;21.90;;;15.27;;
32214;SDS011;18708;53.124;23.190;2023-02-13T08:37:37;19.35;;;11.52;;
32214;SDS011;18708;53.124;23.190;2023-02-13T08:40:03;20.17;;;12.35;;
32214;SDS011;18708;53.124;23.190;2023-02-13T08:42:35;15.55;;;10.38;;
32214;SDS011;18708;53.124;23.190;2023-02-13T08:45:01;17.15;;;12.10;;
32214;SDS011;18708;53.124;23.190;2023-02-13T08:47:28;15.68;;;10.20;;
32214;SDS011;18708;53.124;23.190;2023-02-13T08:49:53;24.30;;;14.20;;
32214;SDS011;18708;53.124;23.190;2023-02-13T08:52:19;15.30;;;10.18;;
32214;SDS011;18708;53.124;23.190;2023-02-13T08:54:45;19.63;;;10.98;;
32214;SDS011;18708;53.124;23.190;2023-02-13T08:57:10;18.17;;;10.13;;
32214;SDS011;18708;53.124;23.190;2023-02-13T08:59:36;25.08;;;17.25;;
32214;SDS011;18708;53.124;23.190;2023-02-13T09:02:01;16.23;;;10.30;;
32214;SDS011;18708;53.124;23.190;2023-02-13T09:04:30;14.77;;;9.35;;
32214;SDS011;18708;53.124;23.190;2023-02-13T09:06:55;14.93;;;9.68;;
32214;SDS011;18708;53.124;23.190;2023-02-13T09:09:21;13.07;;;8.73;;
32214;SDS011;18708;53.124;23.190;2023-02-13T09:11:47;16.17;;;9.43;;
32214;SDS011;18708;53.124;23.190;2023-02-13T09:14:14;12.85;;;8.55;;
32214;SDS011;18708;53.124;23.190;2023-02-13T09:16:40;17.38;;;9.35;;
32214;SDS011;18708;53.124;23.190;2023-02-13T09:19:06;13.38;;;8.70;;
32214;SDS011;18708;53.124;23.190;2023-02-13T09:21:31;14.30;;;8.88;;
32214;SDS011;18708;53.124;23.190;2023-02-13T09:23:57;11.15;;;8.07;;
32214;SDS011;18708;53.124;23.190;2023-02-13T09:26:22;15.57;;;8.27;;
32214;SDS011;18708;53.124;23.190;2023-02-13T09:28:48;12.18;;;7.13;;
32214;SDS011;18708;53.124;23.190;2023-02-13T09:31:17;14.07;;;7.13;;
32214;SDS011;18708;53.124;23.190;2023-02-13T09:33:44;14.70;;;9.18;;
32214;SDS011;18708;53.124;23.190;2023-02-13T09:36:14;11.48;;;7.85;;
32214;SDS011;18708;53.124;23.190;2023-02-13T09:38:43;12.32;;;7.28;;
32214;SDS011;18708;53.124;23.190;2023-02-13T09:41:17;10.75;;;8.00;;
32214;SDS011;18708;53.124;23.190;2023-02-13T09:46:57;10.30;;;7.15;;
32214;SDS011;18708;53.124;23.190;2023-02-13T09:49:30;12.20;;;7.47;;
32214;SDS011;18708;53.124;23.190;2023-02-13T09:51:59;11.30;;;7.10;;
32214;SDS011;18708;53.124;23.190;2023-02-13T09:54:25;14.00;;;8.18;;
32214;SDS011;18708;53.124;23.190;2023-02-13T09:57:06;13.10;;;8.30;;
32214;SDS011;18708;53.124;23.190;2023-02-13T10:02:13;13.90;;;7.88;;
32214;SDS011;18708;53.124;23.190;2023-02-13T10:04:53;14.43;;;7.78;;
32214;SDS011;18708;53.124;23.190;2023-02-13T10:07:48;13.40;;;7.45;;
32214;SDS011;18708;53.124;23.190;2023-02-13T10:10:49;10.70;;;6.32;;
32214;SDS011;18708;53.124;23.190;2023-02-13T10:13:13;12.48;;;7.38;;
32214;SDS011;18708;53.124;23.190;2023-02-13T10:15:50;10.50;;;7.47;;
32214;SDS011;18708;53.124;23.190;2023-02-13T10:18:27;15.52;;;8.75;;
32214;SDS011;18708;53.124;23.190;2023-02-13T10:21:02;13.70;;;8.85;;
32214;SDS011;18708;53.124;23.190;2023-02-13T10:23:34;13.65;;;8.88;;
32214;SDS011;18708;53.124;23.190;2023-02-13T10:26:15;13.23;;;8.00;;
32214;SDS011;18708;53.124;23.190;2023-02-13T10:28:49;11.43;;;7.25;;
32214;SDS011;18708;53.124;23.190;2023-02-13T10:31:43;12.05;;;6.63;;
32214;SDS011;18708;53.124;23.190;2023-02-13T10:34:13;12.18;;;7.53;;
32214;SDS011;18708;53.124;23.190;2023-02-13T10:36:42;14.30;;;7.40;;
32214;SDS011;18708;53.124;23.190;2023-02-13T10:41:52;9.65;;;7.68;;
32214;SDS011;18708;53.124;23.190;2023-02-13T10:44:51;13.27;;;7.53;;
32214;SDS011;18708;53.124;23.190;2023-02-13T10:47:44;10.40;;;7.22;;
32214;SDS011;18708;53.124;23.190;2023-02-13T10:56:33;13.00;;;7.05;;
32214;SDS011;18708;53.124;23.190;2023-02-13T10:59:33;11.70;;;7.57;;
32214;SDS011;18708;53.124;23.190;2023-02-13T11:04:45;11.95;;;6.90;;
32214;SDS011;18708;53.124;23.190;2023-02-13T11:07:13;13.63;;;7.45;;
32214;SDS011;18708;53.124;23.190;2023-02-13T11:09:41;11.38;;;7.43;;
32214;SDS011;18708;53.124;23.190;2023-02-13T11:14:58;13.48;;;7.80;;
32214;SDS011;18708;53.124;23.190;2023-02-13T11:17:26;13.38;;;8.02;;
32214;SDS011;18708;53.124;23.190;2023-02-13T11:19:56;13.25;;;8.38;;
32214;SDS011;18708;53.124;23.190;2023-02-13T11:22:35;12.07;;;8.30;;
32214;SDS011;18708;53.124;23.190;2023-02-13T11:27:50;11.85;;;6.68;;
32214;SDS011;18708;53.124;23.190;2023-02-13T11:30:29;10.95;;;7.57;;
32214;SDS011;18708;53.124;23.190;2023-02-13T11:32:57;12.15;;;7.22;;
32214;SDS011;18708;53.124;23.190;2023-02-13T11:35:29;13.05;;;7.78;;
32214;SDS011;18708;53.124;23.190;2023-02-13T11:38:09;13.40;;;6.90;;
32214;SDS011;18708;53.124;23.190;2023-02-13T11:40:35;9.25;;;6.32;;
32214;SDS011;18708;53.124;23.190;2023-02-13T11:43:04;9.68;;;6.85;;
32214;SDS011;18708;53.124;23.190;2023-02-13T11:45:31;10.35;;;6.65;;
32214;SDS011;18708;53.124;23.190;2023-02-13T11:47:57;13.40;;;8.02;;
32214;SDS011;18708;53.124;23.190;2023-02-13T11:52:58;10.00;;;6.60;;
32214;SDS011;18708;53.124;23.190;2023-02-13T11:55:36;12.93;;;7.10;;
32214;SDS011;18708;53.124;23.190;2023-02-13T11:58:21;9.55;;;6.60;;
32214;SDS011;18708;53.124;23.190;2023-02-13T12:00:49;8.90;;;5.25;;
32214;SDS011;18708;53.124;23.190;2023-02-13T12:03:31;12.27;;;6.13;;
32214;SDS011;18708;53.124;23.190;2023-02-13T12:08:40;6.53;;;4.85;;
32214;SDS011;18708;53.124;23.190;2023-02-13T12:11:22;9.88;;;5.18;;
32214;SDS011;18708;53.124;23.190;2023-02-13T12:13:59;8.13;;;4.10;;
32214;SDS011;18708;53.124;23.190;2023-02-13T12:16:34;8.93;;;4.35;;
32214;SDS011;18708;53.124;23.190;2023-02-13T12:19:16;8.65;;;4.68;;
32214;SDS011;18708;53.124;23.190;2023-02-13T12:24:44;10.63;;;4.85;;
32214;SDS011;18708;53.124;23.190;2023-02-13T12:27:22;10.45;;;6.47;;
32214;SDS011;18708;53.124;23.190;2023-02-13T12:33:01;9.43;;;4.97;;
32214;SDS011;18708;53.124;23.190;2023-02-13T12:57:55;18.17;;;9.70;;
32214;SDS011;18708;53.124;23.190;2023-02-13T13:22:46;9.48;;;6.10;;
32214;SDS011;18708;53.124;23.190;2023-02-13T13:27:55;14.13;;;7.72;;
32214;SDS011;18708;53.124;23.190;2023-02-13T13:30:33;22.45;;;12.85;;
32214;SDS011;18708;53.124;23.190;2023-02-13T13:35:39;7.68;;;5.28;;
32214;SDS011;18708;53.124;23.190;2023-02-13T13:38:17;10.23;;;5.60;;
32214;SDS011;18708;53.124;23.190;2023-02-13T13:40:58;11.80;;;5.35;;
32214;SDS011;18708;53.124;23.190;2023-02-13T13:46:28;11.02;;;6.38;;
32214;SDS011;18708;53.124;23.190;2023-02-13T13:51:37;11.95;;;7.25;;
32214;SDS011;18708;53.124;23.190;2023-02-13T14:07:25;13.05;;;6.03;;
32214;SDS011;18708;53.124;23.190;2023-02-13T14:10:00;13.02;;;6.13;;
32214;SDS011;18708;53.124;23.190;2023-02-13T14:14:57;18.35;;;7.60;;
32214;SDS011;18708;53.124;23.190;2023-02-13T14:20:22;16.38;;;9.30;;
32214;SDS011;18708;53.124;23.190;2023-02-13T14:22:56;12.60;;;7.85;;
32214;SDS011;18708;53.124;23.190;2023-02-13T14:25:36;14.68;;;8.18;;
32214;SDS011;18708;53.124;23.190;2023-02-13T14:28:02;13.50;;;8.48;;
32214;SDS011;18708;53.124;23.190;2023-02-13T14:30:36;13.95;;;9.10;;
32214;SDS011;18708;53.124;23.190;2023-02-13T14:33:07;16.85;;;10.13;;
32214;SDS011;18708;53.124;23.190;2023-02-13T14:36:01;27.30;;;15.25;;
32214;SDS011;18708;53.124;23.190;2023-02-13T14:38:30;16.05;;;8.80;;
32214;SDS011;18708;53.124;23.190;2023-02-13T14:40:57;14.80;;;8.80;;
32214;SDS011;18708;53.124;23.190;2023-02-13T14:51:32;11.48;;;7.85;;
32214;SDS011;18708;53.124;23.190;2023-02-13T14:54:03;12.73;;;7.55;;
32214;SDS011;18708;53.124;23.190;2023-02-13T14:56:50;9.82;;;6.45;;
32214;SDS011;18708;53.124;23.190;2023-02-13T14:59:19;12.27;;;6.90;;
32214;SDS011;18708;53.124;23.190;2023-02-13T15:01:56;15.20;;;7.47;;
32214;SDS011;18708;53.124;23.190;2023-02-13T15:06:55;17.60;;;9.50;;
32214;SDS011;18708;53.124;23.190;2023-02-13T15:11:57;20.10;;;12.35;;
32214;SDS011;18708;53.124;23.190;2023-02-13T15:14:33;14.43;;;9.35;;
32214;SDS011;18708;53.124;23.190;2023-02-13T15:17:04;15.35;;;8.75;;
32214;SDS011;18708;53.124;23.190;2023-02-13T15:19:41;17.17;;;9.30;;
32214;SDS011;18708;53.124;23.190;2023-02-13T15:22:14;16.10;;;10.45;;
32214;SDS011;18708;53.124;23.190;2023-02-13T15:24:49;18.15;;;9.63;;
32214;SDS011;18708;53.124;23.190;2023-02-13T15:27:24;18.95;;;11.18;;
32214;SDS011;18708;53.124;23.190;2023-02-13T15:29:56;14.68;;;10.05;;
32214;SDS011;18708;53.124;23.190;2023-02-13T15:32:37;16.67;;;9.10;;
32214;SDS011;18708;53.124;23.190;2023-02-13T15:37:47;17.45;;;9.73;;
32214;SDS011;18708;53.124;23.190;2023-02-13T15:40:14;41.83;;;23.92;;
32214;SDS011;18708;53.124;23.190;2023-02-13T15:42:40;26.92;;;15.75;;
32214;SDS011;18708;53.124;23.190;2023-02-13T15:45:12;23.20;;;13.00;;
32214;SDS011;18708;53.124;23.190;2023-02-13T15:47:39;15.17;;;8.97;;
32214;SDS011;18708;53.124;23.190;2023-02-13T15:52:48;18.17;;;9.68;;
32214;SDS011;18708;53.124;23.190;2023-02-13T15:55:22;39.47;;;17.00;;
32214;SDS011;18708;53.124;23.190;2023-02-13T15:57:51;36.15;;;17.88;;
32214;SDS011;18708;53.124;23.190;2023-02-13T16:00:22;30.77;;;16.25;;
32214;SDS011;18708;53.124;23.190;2023-02-13T16:02:50;24.10;;;16.05;;
32214;SDS011;18708;53.124;23.190;2023-02-13T16:05:20;12.02;;;9.00;;
32214;SDS011;18708;53.124;23.190;2023-02-13T16:07:48;17.67;;;10.18;;
32214;SDS011;18708;53.124;23.190;2023-02-13T16:12:58;21.42;;;13.45;;
32214;SDS011;18708;53.124;23.190;2023-02-13T16:15:28;31.13;;;17.95;;
32214;SDS011;18708;53.124;23.190;2023-02-13T16:17:56;23.23;;;13.32;;
32214;SDS011;18708;53.124;23.190;2023-02-13T16:20:23;24.52;;;16.88;;
32214;SDS011;18708;53.124;23.190;2023-02-13T16:23:01;24.67;;;12.07;;
32214;SDS011;18708;53.124;23.190;2023-02-13T16:25:37;24.67;;;14.63;;
32214;SDS011;18708;53.124;23.190;2023-02-13T16:28:20;20.45;;;13.63;;
32214;SDS011;18708;53.124;23.190;2023-02-13T16:30:53;35.70;;;19.52;;
32214;SDS011;18708;53.124;23.190;2023-02-13T16:33:32;33.42;;;18.70;;
32214;SDS011;18708;53.124;23.190;2023-02-13T16:38:44;28.83;;;15.02;;
32214;SDS011;18708;53.124;23.190;2023-02-13T16:43:52;47.78;;;30.55;;
32214;SDS011;18708;53.124;23.190;2023-02-13T16:53:57;26.75;;;14.93;;
32214;SDS011;18708;53.124;23.190;2023-02-13T16:56:57;19.33;;;10.32;;
32214;SDS011;18708;53.124;23.190;2023-02-13T17:02:40;17.27;;;11.02;;
32214;SDS011;18708;53.124;23.190;2023-02-13T17:07:32;24.85;;;12.63;;
32214;SDS011;18708;53.124;23.190;2023-02-13T17:10:01;18.25;;;10.90;;
32214;SDS011;18708;53.124;23.190;2023-02-13T17:12:30;25.42;;;14.90;;
32214;SDS011;18708;53.124;23.190;2023-02-13T17:15:01;16.63;;;7.40;;
32214;SDS011;18708;53.124;23.190;2023-02-13T17:17:29;34.28;;;16.23;;
32214;SDS011;18708;53.124;23.190;2023-02-13T17:19:56;26.98;;;13.95;;
32214;SDS011;18708;53.124;23.190;2023-02-13T17:22:27;24.70;;;14.43;;
32214;SDS011;18708;53.124;23.190;2023-02-13T17:25:19;10.80;;;5.82;;
32214;SDS011;18708;53.124;23.190;2023-02-13T17:27:47;14.88;;;5.78;;
32214;SDS011;18708;53.124;23.190;2023-02-13T17:30:15;15.00;;;6.65;;
32214;SDS011;18708;53.124;23.190;2023-02-13T17:32:49;10.35;;;6.13;;
32214;SDS011;18708;53.124;23.190;2023-02-13T17:35:22;16.05;;;6.97;;
32214;SDS011;18708;53.124;23.190;2023-02-13T17:37:47;12.43;;;6.07;;
32214;SDS011;18708;53.124;23.190;2023-02-13T17:40:14;10.90;;;5.10;;
32214;SDS011;18708;53.124;23.190;2023-02-13T17:42:43;16.65;;;6.97;;